AQQ10 IFIS: Internet Flight Information System
logo dgac
Viernes 01 de Julio del 2022
Buscar por aerodromo o helipuerto
Ingrese nombre de aeródromo, localidad o designador OACI:
METAR del 01-07-2022 a las 14:00 UTC
Para mayor información visite www.meteochile.cl
METAR SCSE 011400Z 06003KT 350V090 9999 FEW013 BKN230 12/07 Q1020
Viento: dirección 060 grados, velocidad 3 nudos
Viento con dirección variable entre 350 y 090 grados
Visibilidad: 10 km o más
Nubes: Escasa nubosidad a 1300 pies sobre el nivel del aeródromo
Nubes: Nublado a 23000 pies sobre el nivel del aeródromo
Temperatura: 12 °C
Rocío: 7 °C
Humedad_relativa: 71%
Presión: 1020 hPa
METAR del 01-07-2022 a las 13:00 UTC
Para mayor información visite www.meteochile.cl
METAR SCSE 011300Z 12005KT CAVOK 12/07 Q1019
Viento: dirección 120 grados, velocidad 5 nudos
Visibilidad: 10 km o más,
    sin nubes bajo los 5.000 pies o bajo del MSA (Mínimo de Seguridad del Aeródromo),
    sin cumulonimbus, y sin fenómenos de tiempo significativo en el aeródromo o alrededores
Temperatura: 12 °C
Rocío: 7 °C
Humedad_relativa: 71%
Presión: 1019 hPa
METAR del 01-07-2022 a las 12:00 UTC
Para mayor información visite www.meteochile.cl
METAR SCSE 011200Z 10006KT 9999 FEW018 BKN230 11/07 Q1019
Viento: dirección 100 grados, velocidad 6 nudos
Visibilidad: 10 km o más
Nubes: Escasa nubosidad a 1800 pies sobre el nivel del aeródromo
Nubes: Nublado a 23000 pies sobre el nivel del aeródromo
Temperatura: 11 °C
Rocío: 7 °C
Humedad_relativa: 76%
Presión: 1019 hPa
METAR del 01-07-2022 a las 11:00 UTC
Para mayor información visite www.meteochile.cl
METAR SCSE 011100Z AUTO 07004KT 9999 OVC017/// 11/08 Q1018
Viento: dirección 070 grados, velocidad 4 nudos
Visibilidad: 10 km o más
Nubes: Cubierto a 1700 pies sobre el nivel del aeródromo, Tipo de nubes no disponible
Temperatura: 11 °C
Rocío: 8 °C
Humedad_relativa: 82%
Presión: 1018 hPa
METAR del 01-07-2022 a las 10:00 UTC
Para mayor información visite www.meteochile.cl
METAR SCSE 011000Z AUTO 07004KT 9999 BKN014/// OVC018/// 11/10 Q1018
Viento: dirección 070 grados, velocidad 4 nudos
Visibilidad: 10 km o más
Nubes: Nublado a 1400 pies sobre el nivel del aeródromo, Tipo de nubes no disponible
Nubes: Cubierto a 1800 pies sobre el nivel del aeródromo, Tipo de nubes no disponible
Temperatura: 11 °C
Rocío: 10 °C
Humedad_relativa: 94%
Presión: 1018 hPa
METAR del 01-07-2022 a las 09:00 UTC
Para mayor información visite www.meteochile.cl
METAR SCSE 010900Z AUTO VRB02KT 9999 -RA SCT010/// BKN012/// OVC014/// 11/10 Q1018
Viento: dirección variable, velocidad 2 nudos
Visibilidad: 10 km o más
Débil Lluvia
Nubes: Nubosidad parcial a 1000 pies sobre el nivel del aeródromo, Tipo de nubes no disponible
Nubes: Nublado a 1200 pies sobre el nivel del aeródromo, Tipo de nubes no disponible
Nubes: Cubierto a 1400 pies sobre el nivel del aeródromo, Tipo de nubes no disponible
Temperatura: 11 °C
Rocío: 10 °C
Humedad_relativa: 94%
Presión: 1018 hPa
METAR del 01-07-2022 a las 08:00 UTC
Para mayor información visite www.meteochile.cl
METAR SCSE 010800Z AUTO 28004KT 9999 OVC013/// 11/10 Q1018
Viento: dirección 280 grados, velocidad 4 nudos
Visibilidad: 10 km o más
Nubes: Cubierto a 1300 pies sobre el nivel del aeródromo, Tipo de nubes no disponible
Temperatura: 11 °C
Rocío: 10 °C
Humedad_relativa: 94%
Presión: 1018 hPa
METAR del 01-07-2022 a las 07:00 UTC
Para mayor información visite www.meteochile.cl
METAR SCSE 010700Z AUTO 09003KT 9999 OVC014/// 11/09 Q1018
Viento: dirección 090 grados, velocidad 3 nudos
Visibilidad: 10 km o más
Nubes: Cubierto a 1400 pies sobre el nivel del aeródromo, Tipo de nubes no disponible
Temperatura: 11 °C
Rocío: 9 °C
Humedad_relativa: 87%
Presión: 1018 hPa
METAR del 01-07-2022 a las 06:00 UTC
Para mayor información visite www.meteochile.cl
METAR SCSE 010600Z AUTO 10004KT 9999 OVC012/// 11/09 Q1018
Viento: dirección 100 grados, velocidad 4 nudos
Visibilidad: 10 km o más
Nubes: Cubierto a 1200 pies sobre el nivel del aeródromo, Tipo de nubes no disponible
Temperatura: 11 °C
Rocío: 9 °C
Humedad_relativa: 87%
Presión: 1018 hPa
METAR del 01-07-2022 a las 05:00 UTC
Para mayor información visite www.meteochile.cl
METAR SCSE 010500Z AUTO 09004KT 060V120 9999 OVC011/// 12/10 Q1018
Viento: dirección 090 grados, velocidad 4 nudos
Viento con dirección variable entre 060 y 120 grados
Visibilidad: 10 km o más
Nubes: Cubierto a 1100 pies sobre el nivel del aeródromo, Tipo de nubes no disponible
Temperatura: 12 °C
Rocío: 10 °C
Humedad_relativa: 88%
Presión: 1018 hPa